Cole Camp, MO

9:41 AM CST on December 10, 2016 (GMT -0600)
N Hughes Ave | | Change Station

Elev 1089 ft 38.44 °N, 92.99 °W | Updated 21 seconds ago

Overcast
Overcast
29.5 °F
Feels Like 30 °F
N
1.0
Wind Variable Wind from ESE

Today
High -- | Low -- °F
--% Chance of Precip.
Yesterday
High -- | Low -- °F
Precip. -- in
Pressure 30.50 in
Visibility 10.0 miles
Clouds Overcast 4800 ft
Windchill 30 °F
Dew Point 19 °F
Humidity 65%
Rainfall 0.00 in
Snow Depth Not available.
7:19 AM 4:52 PM
Waxing Gibbous, 84% visible
METAR KDMO 101453Z AUTO 14008KT 10SM OVC048 M02/M09 A3046 RMK AO2 SLP326 T10171089 58009
Pressure 30.50 in
Visibility 10.0 miles
Clouds Overcast 4800 ft
Windchill 30 °F
Dew Point 19 °F
Humidity 65%
Rainfall 0.00 in
Snow Depth Not available.
7:19 AM 4:52 PM
Waxing Gibbous, 84% visible
METAR KDMO 101453Z AUTO 14008KT 10SM OVC048 M02/M09 A3046 RMK AO2 SLP326 T10171089 58009

10-Day Weather Forecast

Almanac

Astronomy

Dec. 10, 2016 Rise Set
Actual Time
Civil Twilight
Nautical Twilight
Astronomical Twilight
Moon
Length of Visible Light
Length of Day
Tomorrow will be .
, % of the Moon is Illuminated

Today's Extremes

State Highs State Lows

Community

WunderPhotos

Upload Photos

1,956,549 photos uploaded!

WunderBlog® & News

Nearby

Air Quality

  Air Quality AQ Index Pollutant
Not available.

Snow Depth

Station Depth Elevation

Earthquake Activity

City Distance Mag. Time & Date
Minimum magnitude displayed is 2.5.

Coastal Water Temperatures

Place Temperature

Stations

Nearby Weather Stations

Station Location Temp. Windchill Dew Point Humidity Wind Precip. Elev Updated Type
                   

Watches & Warnings

There are currently no watches in effect.